sensor_id;sensor_type;location;lat;lon;timestamp;P1;durP1;ratioP1;P2;durP2;ratioP2
26335;SDS011;14047;50.936;4.654;2022-12-13T00:01:20;72.13;;;30.60;;
26335;SDS011;14047;50.936;4.654;2022-12-13T00:03:46;64.57;;;27.88;;
26335;SDS011;14047;50.936;4.654;2022-12-13T00:06:12;68.82;;;28.70;;
26335;SDS011;14047;50.936;4.654;2022-12-13T00:08:38;59.78;;;27.90;;
26335;SDS011;14047;50.936;4.654;2022-12-13T00:11:06;67.43;;;28.80;;
26335;SDS011;14047;50.936;4.654;2022-12-13T00:13:34;71.43;;;28.63;;
26335;SDS011;14047;50.936;4.654;2022-12-13T00:16:01;64.32;;;26.50;;
26335;SDS011;14047;50.936;4.654;2022-12-13T00:18:29;68.95;;;26.63;;
26335;SDS011;14047;50.936;4.654;2022-12-13T00:20:55;60.85;;;27.88;;
26335;SDS011;14047;50.936;4.654;2022-12-13T00:23:21;61.42;;;27.58;;
26335;SDS011;14047;50.936;4.654;2022-12-13T00:25:47;64.03;;;27.33;;
26335;SDS011;14047;50.936;4.654;2022-12-13T00:28:13;65.93;;;25.83;;
26335;SDS011;14047;50.936;4.654;2022-12-13T00:30:40;58.25;;;26.20;;
26335;SDS011;14047;50.936;4.654;2022-12-13T00:33:06;66.43;;;27.95;;
26335;SDS011;14047;50.936;4.654;2022-12-13T00:35:32;57.92;;;26.80;;
26335;SDS011;14047;50.936;4.654;2022-12-13T00:37:58;59.72;;;26.70;;
26335;SDS011;14047;50.936;4.654;2022-12-13T00:40:23;58.00;;;26.08;;
26335;SDS011;14047;50.936;4.654;2022-12-13T00:42:52;51.65;;;23.75;;
26335;SDS011;14047;50.936;4.654;2022-12-13T00:45:17;58.55;;;24.88;;
26335;SDS011;14047;50.936;4.654;2022-12-13T00:47:43;52.60;;;24.45;;
26335;SDS011;14047;50.936;4.654;2022-12-13T00:50:10;57.42;;;25.90;;
26335;SDS011;14047;50.936;4.654;2022-12-13T00:52:36;56.25;;;23.98;;
26335;SDS011;14047;50.936;4.654;2022-12-13T00:55:02;52.60;;;23.73;;
26335;SDS011;14047;50.936;4.654;2022-12-13T00:57:27;53.60;;;24.58;;
26335;SDS011;14047;50.936;4.654;2022-12-13T00:59:53;57.50;;;24.55;;
26335;SDS011;14047;50.936;4.654;2022-12-13T01:02:19;59.75;;;24.15;;
26335;SDS011;14047;50.936;4.654;2022-12-13T01:04:44;56.58;;;24.55;;
26335;SDS011;14047;50.936;4.654;2022-12-13T01:07:12;53.53;;;25.00;;
26335;SDS011;14047;50.936;4.654;2022-12-13T01:09:38;63.42;;;24.00;;
26335;SDS011;14047;50.936;4.654;2022-12-13T01:12:06;55.85;;;23.25;;
26335;SDS011;14047;50.936;4.654;2022-12-13T01:14:36;59.08;;;24.13;;
26335;SDS011;14047;50.936;4.654;2022-12-13T01:17:03;65.78;;;25.95;;
26335;SDS011;14047;50.936;4.654;2022-12-13T01:19:30;52.20;;;24.13;;
26335;SDS011;14047;50.936;4.654;2022-12-13T01:21:57;56.22;;;23.35;;
26335;SDS011;14047;50.936;4.654;2022-12-13T01:24:28;52.20;;;22.67;;
26335;SDS011;14047;50.936;4.654;2022-12-13T01:26:55;55.88;;;21.65;;
26335;SDS011;14047;50.936;4.654;2022-12-13T01:29:21;47.30;;;21.42;;
26335;SDS011;14047;50.936;4.654;2022-12-13T01:31:48;45.72;;;21.15;;
26335;SDS011;14047;50.936;4.654;2022-12-13T01:34:15;45.35;;;20.90;;
26335;SDS011;14047;50.936;4.654;2022-12-13T01:36:42;44.45;;;21.33;;
26335;SDS011;14047;50.936;4.654;2022-12-13T01:39:10;51.97;;;23.00;;
26335;SDS011;14047;50.936;4.654;2022-12-13T01:41:37;51.78;;;22.60;;
26335;SDS011;14047;50.936;4.654;2022-12-13T01:44:50;47.72;;;22.55;;
26335;SDS011;14047;50.936;4.654;2022-12-13T01:47:07;52.20;;;23.15;;
26335;SDS011;14047;50.936;4.654;2022-12-13T01:49:32;52.08;;;21.70;;
26335;SDS011;14047;50.936;4.654;2022-12-13T01:51:59;49.03;;;22.85;;
26335;SDS011;14047;50.936;4.654;2022-12-13T01:54:31;51.25;;;22.13;;
26335;SDS011;14047;50.936;4.654;2022-12-13T01:57:01;45.30;;;21.45;;
26335;SDS011;14047;50.936;4.654;2022-12-13T01:59:30;59.15;;;23.77;;
26335;SDS011;14047;50.936;4.654;2022-12-13T02:01:59;54.75;;;25.38;;
26335;SDS011;14047;50.936;4.654;2022-12-13T02:04:27;48.35;;;21.60;;
26335;SDS011;14047;50.936;4.654;2022-12-13T02:06:57;49.67;;;21.45;;
26335;SDS011;14047;50.936;4.654;2022-12-13T02:09:23;50.20;;;21.58;;
26335;SDS011;14047;50.936;4.654;2022-12-13T02:11:50;49.47;;;22.80;;
26335;SDS011;14047;50.936;4.654;2022-12-13T02:14:16;48.63;;;21.02;;
26335;SDS011;14047;50.936;4.654;2022-12-13T02:19:41;42.92;;;20.17;;
26335;SDS011;14047;50.936;4.654;2022-12-13T02:41:16;50.42;;;21.02;;
26335;SDS011;14047;50.936;4.654;2022-12-13T02:46:37;46.53;;;21.20;;
26335;SDS011;14047;50.936;4.654;2022-12-13T02:49:07;46.78;;;21.45;;
26335;SDS011;14047;50.936;4.654;2022-12-13T02:51:35;50.08;;;19.25;;
26335;SDS011;14047;50.936;4.654;2022-12-13T02:54:03;45.90;;;21.05;;
26335;SDS011;14047;50.936;4.654;2022-12-13T02:56:30;49.25;;;20.83;;
26335;SDS011;14047;50.936;4.654;2022-12-13T02:58:56;40.88;;;20.17;;
26335;SDS011;14047;50.936;4.654;2022-12-13T03:04:12;48.95;;;20.40;;
26335;SDS011;14047;50.936;4.654;2022-12-13T03:07:13;43.45;;;19.30;;
26335;SDS011;14047;50.936;4.654;2022-12-13T03:09:55;42.60;;;19.08;;
26335;SDS011;14047;50.936;4.654;2022-12-13T03:15:20;44.88;;;19.48;;
26335;SDS011;14047;50.936;4.654;2022-12-13T03:17:55;45.67;;;20.48;;
26335;SDS011;14047;50.936;4.654;2022-12-13T03:20:25;44.63;;;19.02;;
26335;SDS011;14047;50.936;4.654;2022-12-13T03:22:53;39.00;;;17.27;;
26335;SDS011;14047;50.936;4.654;2022-12-13T03:25:20;43.75;;;17.08;;
26335;SDS011;14047;50.936;4.654;2022-12-13T03:27:47;43.92;;;17.92;;
26335;SDS011;14047;50.936;4.654;2022-12-13T03:30:12;40.78;;;17.75;;
26335;SDS011;14047;50.936;4.654;2022-12-13T03:32:38;40.05;;;18.20;;
26335;SDS011;14047;50.936;4.654;2022-12-13T03:35:04;38.70;;;17.63;;
26335;SDS011;14047;50.936;4.654;2022-12-13T03:37:30;38.92;;;16.52;;
26335;SDS011;14047;50.936;4.654;2022-12-13T03:39:57;39.42;;;17.60;;
26335;SDS011;14047;50.936;4.654;2022-12-13T03:42:23;35.05;;;16.70;;
26335;SDS011;14047;50.936;4.654;2022-12-13T03:44:49;71.30;;;18.77;;
26335;SDS011;14047;50.936;4.654;2022-12-13T03:47:15;37.80;;;16.55;;
26335;SDS011;14047;50.936;4.654;2022-12-13T03:49:41;34.58;;;16.60;;
26335;SDS011;14047;50.936;4.654;2022-12-13T03:52:07;35.30;;;15.45;;
26335;SDS011;14047;50.936;4.654;2022-12-13T03:54:32;31.20;;;15.25;;
26335;SDS011;14047;50.936;4.654;2022-12-13T03:56:58;32.17;;;15.02;;
26335;SDS011;14047;50.936;4.654;2022-12-13T03:59:24;39.72;;;15.98;;
26335;SDS011;14047;50.936;4.654;2022-12-13T04:01:49;38.22;;;15.50;;
26335;SDS011;14047;50.936;4.654;2022-12-13T04:04:15;34.80;;;14.55;;
26335;SDS011;14047;50.936;4.654;2022-12-13T04:06:41;32.72;;;14.80;;
26335;SDS011;14047;50.936;4.654;2022-12-13T04:09:06;38.80;;;16.45;;
26335;SDS011;14047;50.936;4.654;2022-12-13T04:11:32;31.83;;;14.68;;
26335;SDS011;14047;50.936;4.654;2022-12-13T04:14:16;34.60;;;16.40;;
26335;SDS011;14047;50.936;4.654;2022-12-13T04:16:42;37.90;;;15.25;;
26335;SDS011;14047;50.936;4.654;2022-12-13T04:19:07;32.47;;;14.98;;
26335;SDS011;14047;50.936;4.654;2022-12-13T04:21:33;49.15;;;16.65;;
26335;SDS011;14047;50.936;4.654;2022-12-13T04:23:59;33.65;;;14.93;;
26335;SDS011;14047;50.936;4.654;2022-12-13T04:26:24;33.95;;;15.50;;
26335;SDS011;14047;50.936;4.654;2022-12-13T04:28:50;30.30;;;14.85;;
26335;SDS011;14047;50.936;4.654;2022-12-13T04:31:16;33.08;;;15.45;;
26335;SDS011;14047;50.936;4.654;2022-12-13T04:33:41;31.27;;;14.93;;
26335;SDS011;14047;50.936;4.654;2022-12-13T04:36:07;31.63;;;14.15;;
26335;SDS011;14047;50.936;4.654;2022-12-13T04:38:33;34.75;;;14.55;;
26335;SDS011;14047;50.936;4.654;2022-12-13T04:41:05;35.60;;;15.27;;
26335;SDS011;14047;50.936;4.654;2022-12-13T04:43:38;38.15;;;15.63;;
26335;SDS011;14047;50.936;4.654;2022-12-13T04:46:03;27.15;;;12.85;;
26335;SDS011;14047;50.936;4.654;2022-12-13T04:48:29;27.33;;;13.55;;
26335;SDS011;14047;50.936;4.654;2022-12-13T04:50:56;30.83;;;15.02;;
26335;SDS011;14047;50.936;4.654;2022-12-13T04:53:23;32.28;;;14.57;;
26335;SDS011;14047;50.936;4.654;2022-12-13T04:55:48;35.80;;;14.98;;
26335;SDS011;14047;50.936;4.654;2022-12-13T04:58:14;34.30;;;14.05;;
26335;SDS011;14047;50.936;4.654;2022-12-13T05:00:40;36.15;;;14.27;;
26335;SDS011;14047;50.936;4.654;2022-12-13T05:03:05;31.70;;;14.90;;
26335;SDS011;14047;50.936;4.654;2022-12-13T05:05:31;35.35;;;14.73;;
26335;SDS011;14047;50.936;4.654;2022-12-13T05:07:57;34.90;;;14.93;;
26335;SDS011;14047;50.936;4.654;2022-12-13T05:10:22;32.20;;;14.38;;
26335;SDS011;14047;50.936;4.654;2022-12-13T05:12:48;30.75;;;13.23;;
26335;SDS011;14047;50.936;4.654;2022-12-13T05:15:13;26.25;;;12.95;;
26335;SDS011;14047;50.936;4.654;2022-12-13T05:17:39;28.65;;;12.93;;
26335;SDS011;14047;50.936;4.654;2022-12-13T05:20:05;30.40;;;13.45;;
26335;SDS011;14047;50.936;4.654;2022-12-13T05:22:31;30.13;;;13.95;;
26335;SDS011;14047;50.936;4.654;2022-12-13T05:24:56;29.20;;;13.50;;
26335;SDS011;14047;50.936;4.654;2022-12-13T05:27:22;26.77;;;13.68;;
26335;SDS011;14047;50.936;4.654;2022-12-13T05:29:47;27.05;;;13.32;;
26335;SDS011;14047;50.936;4.654;2022-12-13T05:32:13;27.50;;;13.38;;
26335;SDS011;14047;50.936;4.654;2022-12-13T05:34:39;26.13;;;13.45;;
26335;SDS011;14047;50.936;4.654;2022-12-13T05:37:04;28.15;;;13.90;;
26335;SDS011;14047;50.936;4.654;2022-12-13T05:39:30;27.80;;;13.27;;
26335;SDS011;14047;50.936;4.654;2022-12-13T05:41:56;26.52;;;12.93;;
26335;SDS011;14047;50.936;4.654;2022-12-13T05:44:23;35.85;;;13.05;;
26335;SDS011;14047;50.936;4.654;2022-12-13T05:46:49;33.30;;;12.40;;
26335;SDS011;14047;50.936;4.654;2022-12-13T05:49:14;25.17;;;12.13;;
26335;SDS011;14047;50.936;4.654;2022-12-13T05:51:40;29.88;;;13.50;;
26335;SDS011;14047;50.936;4.654;2022-12-13T05:54:05;27.23;;;12.35;;
26335;SDS011;14047;50.936;4.654;2022-12-13T05:56:31;27.33;;;12.77;;
26335;SDS011;14047;50.936;4.654;2022-12-13T05:58:57;30.17;;;13.40;;
26335;SDS011;14047;50.936;4.654;2022-12-13T06:01:22;31.27;;;12.85;;
26335;SDS011;14047;50.936;4.654;2022-12-13T06:03:48;124.15;;;18.40;;
26335;SDS011;14047;50.936;4.654;2022-12-13T06:06:13;30.50;;;14.15;;
26335;SDS011;14047;50.936;4.654;2022-12-13T06:08:42;29.67;;;14.05;;
26335;SDS011;14047;50.936;4.654;2022-12-13T06:11:07;27.20;;;12.40;;
26335;SDS011;14047;50.936;4.654;2022-12-13T06:13:33;33.42;;;14.68;;
26335;SDS011;14047;50.936;4.654;2022-12-13T06:16:00;29.30;;;13.60;;
26335;SDS011;14047;50.936;4.654;2022-12-13T06:18:32;30.88;;;13.80;;
26335;SDS011;14047;50.936;4.654;2022-12-13T06:20:59;28.92;;;13.07;;
26335;SDS011;14047;50.936;4.654;2022-12-13T06:23:27;35.42;;;12.60;;
26335;SDS011;14047;50.936;4.654;2022-12-13T06:25:54;35.55;;;13.68;;
26335;SDS011;14047;50.936;4.654;2022-12-13T06:28:20;35.90;;;14.15;;
26335;SDS011;14047;50.936;4.654;2022-12-13T06:30:46;34.45;;;14.02;;
26335;SDS011;14047;50.936;4.654;2022-12-13T06:33:12;31.25;;;13.32;;
26335;SDS011;14047;50.936;4.654;2022-12-13T06:35:38;33.58;;;14.68;;
26335;SDS011;14047;50.936;4.654;2022-12-13T06:38:03;35.95;;;14.18;;
26335;SDS011;14047;50.936;4.654;2022-12-13T06:40:29;27.70;;;14.07;;
26335;SDS011;14047;50.936;4.654;2022-12-13T06:42:55;31.98;;;14.88;;
26335;SDS011;14047;50.936;4.654;2022-12-13T06:45:21;29.67;;;13.57;;
26335;SDS011;14047;50.936;4.654;2022-12-13T06:47:46;29.80;;;13.07;;
26335;SDS011;14047;50.936;4.654;2022-12-13T06:50:12;34.92;;;14.88;;
26335;SDS011;14047;50.936;4.654;2022-12-13T06:52:38;30.73;;;15.48;;
26335;SDS011;14047;50.936;4.654;2022-12-13T06:55:04;36.85;;;15.10;;
26335;SDS011;14047;50.936;4.654;2022-12-13T06:57:32;30.73;;;14.00;;
26335;SDS011;14047;50.936;4.654;2022-12-13T06:59:59;36.50;;;14.25;;
26335;SDS011;14047;50.936;4.654;2022-12-13T07:02:24;32.45;;;14.20;;
26335;SDS011;14047;50.936;4.654;2022-12-13T07:04:50;37.92;;;16.08;;
26335;SDS011;14047;50.936;4.654;2022-12-13T07:07:16;37.05;;;15.25;;
26335;SDS011;14047;50.936;4.654;2022-12-13T07:09:41;30.98;;;14.60;;
26335;SDS011;14047;50.936;4.654;2022-12-13T07:12:07;36.30;;;16.23;;
26335;SDS011;14047;50.936;4.654;2022-12-13T07:14:33;37.22;;;15.93;;
26335;SDS011;14047;50.936;4.654;2022-12-13T07:16:58;36.88;;;15.93;;
26335;SDS011;14047;50.936;4.654;2022-12-13T07:19:24;37.47;;;16.08;;
26335;SDS011;14047;50.936;4.654;2022-12-13T07:21:50;32.67;;;17.02;;
26335;SDS011;14047;50.936;4.654;2022-12-13T07:24:16;44.47;;;16.08;;
26335;SDS011;14047;50.936;4.654;2022-12-13T07:26:41;42.00;;;16.08;;
26335;SDS011;14047;50.936;4.654;2022-12-13T07:29:07;42.60;;;17.55;;
26335;SDS011;14047;50.936;4.654;2022-12-13T07:31:33;43.40;;;18.15;;
26335;SDS011;14047;50.936;4.654;2022-12-13T07:34:00;39.63;;;16.25;;
26335;SDS011;14047;50.936;4.654;2022-12-13T07:36:26;44.25;;;17.80;;
26335;SDS011;14047;50.936;4.654;2022-12-13T07:38:52;43.30;;;16.60;;
26335;SDS011;14047;50.936;4.654;2022-12-13T07:41:20;49.83;;;18.52;;
26335;SDS011;14047;50.936;4.654;2022-12-13T07:43:46;43.13;;;17.25;;
26335;SDS011;14047;50.936;4.654;2022-12-13T07:46:12;37.95;;;15.75;;
26335;SDS011;14047;50.936;4.654;2022-12-13T07:48:38;42.97;;;16.38;;
26335;SDS011;14047;50.936;4.654;2022-12-13T07:51:05;39.75;;;18.00;;
26335;SDS011;14047;50.936;4.654;2022-12-13T07:53:32;45.70;;;19.95;;
26335;SDS011;14047;50.936;4.654;2022-12-13T07:56:08;42.10;;;18.15;;
26335;SDS011;14047;50.936;4.654;2022-12-13T07:58:35;45.97;;;18.50;;
26335;SDS011;14047;50.936;4.654;2022-12-13T08:01:02;40.40;;;16.85;;
26335;SDS011;14047;50.936;4.654;2022-12-13T08:03:30;45.40;;;19.45;;
26335;SDS011;14047;50.936;4.654;2022-12-13T08:06:06;37.63;;;17.55;;
26335;SDS011;14047;50.936;4.654;2022-12-13T08:08:36;40.05;;;17.77;;
26335;SDS011;14047;50.936;4.654;2022-12-13T08:11:04;43.88;;;18.42;;
26335;SDS011;14047;50.936;4.654;2022-12-13T08:13:29;40.15;;;16.27;;
26335;SDS011;14047;50.936;4.654;2022-12-13T08:15:59;40.08;;;17.05;;
26335;SDS011;14047;50.936;4.654;2022-12-13T08:18:27;42.53;;;17.10;;
26335;SDS011;14047;50.936;4.654;2022-12-13T08:20:57;44.00;;;17.92;;
26335;SDS011;14047;50.936;4.654;2022-12-13T08:23:25;41.15;;;18.58;;
26335;SDS011;14047;50.936;4.654;2022-12-13T08:25:52;37.00;;;17.30;;
26335;SDS011;14047;50.936;4.654;2022-12-13T08:28:19;40.22;;;17.23;;
26335;SDS011;14047;50.936;4.654;2022-12-13T08:30:44;44.03;;;19.25;;
26335;SDS011;14047;50.936;4.654;2022-12-13T08:33:11;39.97;;;17.38;;
26335;SDS011;14047;50.936;4.654;2022-12-13T08:35:36;41.88;;;17.42;;
26335;SDS011;14047;50.936;4.654;2022-12-13T08:38:02;41.92;;;19.20;;
26335;SDS011;14047;50.936;4.654;2022-12-13T08:40:27;37.95;;;17.65;;
26335;SDS011;14047;50.936;4.654;2022-12-13T08:42:56;42.15;;;16.60;;
26335;SDS011;14047;50.936;4.654;2022-12-13T08:45:22;35.53;;;17.50;;
26335;SDS011;14047;50.936;4.654;2022-12-13T08:47:48;43.90;;;18.05;;
26335;SDS011;14047;50.936;4.654;2022-12-13T08:50:14;36.95;;;16.90;;
26335;SDS011;14047;50.936;4.654;2022-12-13T08:52:40;39.85;;;18.20;;
26335;SDS011;14047;50.936;4.654;2022-12-13T08:55:16;40.63;;;17.95;;
26335;SDS011;14047;50.936;4.654;2022-12-13T08:57:42;40.35;;;18.35;;
26335;SDS011;14047;50.936;4.654;2022-12-13T09:00:18;36.67;;;17.77;;
26335;SDS011;14047;50.936;4.654;2022-12-13T09:02:44;44.85;;;20.05;;
26335;SDS011;14047;50.936;4.654;2022-12-13T09:05:10;39.50;;;18.65;;
26335;SDS011;14047;50.936;4.654;2022-12-13T09:07:37;47.55;;;19.08;;
26335;SDS011;14047;50.936;4.654;2022-12-13T09:10:06;43.58;;;21.73;;
26335;SDS011;14047;50.936;4.654;2022-12-13T09:12:39;49.85;;;21.15;;
26335;SDS011;14047;50.936;4.654;2022-12-13T09:15:05;46.40;;;19.60;;
26335;SDS011;14047;50.936;4.654;2022-12-13T09:17:31;50.70;;;22.02;;
26335;SDS011;14047;50.936;4.654;2022-12-13T09:19:57;54.17;;;24.45;;
26335;SDS011;14047;50.936;4.654;2022-12-13T09:22:22;55.53;;;23.40;;
26335;SDS011;14047;50.936;4.654;2022-12-13T09:24:48;46.53;;;22.05;;
26335;SDS011;14047;50.936;4.654;2022-12-13T09:27:14;59.25;;;29.45;;
26335;SDS011;14047;50.936;4.654;2022-12-13T09:29:39;76.45;;;28.15;;
26335;SDS011;14047;50.936;4.654;2022-12-13T09:32:05;43.60;;;20.55;;
26335;SDS011;14047;50.936;4.654;2022-12-13T09:34:30;50.58;;;21.02;;
26335;SDS011;14047;50.936;4.654;2022-12-13T09:36:57;44.33;;;20.85;;
26335;SDS011;14047;50.936;4.654;2022-12-13T09:39:22;51.08;;;22.95;;
26335;SDS011;14047;50.936;4.654;2022-12-13T09:41:49;53.33;;;24.48;;
26335;SDS011;14047;50.936;4.654;2022-12-13T09:46:49;51.50;;;22.55;;
26335;SDS011;14047;50.936;4.654;2022-12-13T09:49:17;48.13;;;22.52;;
26335;SDS011;14047;50.936;4.654;2022-12-13T09:52:00;84.63;;;26.27;;
26335;SDS011;14047;50.936;4.654;2022-12-13T09:54:27;69.25;;;25.92;;
26335;SDS011;14047;50.936;4.654;2022-12-13T09:56:54;57.70;;;24.92;;
26335;SDS011;14047;50.936;4.654;2022-12-13T09:59:30;66.93;;;30.70;;
26335;SDS011;14047;50.936;4.654;2022-12-13T10:02:10;57.92;;;27.63;;
26335;SDS011;14047;50.936;4.654;2022-12-13T10:04:40;57.20;;;24.35;;
26335;SDS011;14047;50.936;4.654;2022-12-13T10:07:19;58.38;;;23.67;;
26335;SDS011;14047;50.936;4.654;2022-12-13T10:09:47;49.65;;;22.90;;
26335;SDS011;14047;50.936;4.654;2022-12-13T10:12:16;51.80;;;25.48;;
26335;SDS011;14047;50.936;4.654;2022-12-13T10:14:44;53.65;;;23.70;;
26335;SDS011;14047;50.936;4.654;2022-12-13T10:17:19;58.15;;;27.70;;
26335;SDS011;14047;50.936;4.654;2022-12-13T10:19:49;53.25;;;24.13;;
26335;SDS011;14047;50.936;4.654;2022-12-13T10:22:18;53.67;;;23.73;;
26335;SDS011;14047;50.936;4.654;2022-12-13T10:25:00;55.90;;;23.00;;
26335;SDS011;14047;50.936;4.654;2022-12-13T10:30:22;58.60;;;24.10;;
26335;SDS011;14047;50.936;4.654;2022-12-13T10:37:55;49.90;;;25.15;;
26335;SDS011;14047;50.936;4.654;2022-12-13T10:40:29;60.33;;;27.10;;
26335;SDS011;14047;50.936;4.654;2022-12-13T10:43:13;62.00;;;27.08;;
26335;SDS011;14047;50.936;4.654;2022-12-13T10:46:17;50.47;;;24.40;;
26335;SDS011;14047;50.936;4.654;2022-12-13T10:48:47;53.70;;;25.58;;
26335;SDS011;14047;50.936;4.654;2022-12-13T10:51:16;52.40;;;25.20;;
26335;SDS011;14047;50.936;4.654;2022-12-13T10:53:45;52.97;;;25.02;;
26335;SDS011;14047;50.936;4.654;2022-12-13T10:56:11;58.85;;;25.08;;
26335;SDS011;14047;50.936;4.654;2022-12-13T10:58:41;84.22;;;28.25;;
26335;SDS011;14047;50.936;4.654;2022-12-13T11:03:42;58.80;;;24.90;;
26335;SDS011;14047;50.936;4.654;2022-12-13T11:06:19;57.05;;;24.50;;
26335;SDS011;14047;50.936;4.654;2022-12-13T11:08:44;55.35;;;25.73;;
26335;SDS011;14047;50.936;4.654;2022-12-13T11:11:10;54.28;;;24.63;;
26335;SDS011;14047;50.936;4.654;2022-12-13T11:13:52;62.08;;;25.88;;
26335;SDS011;14047;50.936;4.654;2022-12-13T11:18:52;54.90;;;25.73;;
26335;SDS011;14047;50.936;4.654;2022-12-13T11:21:30;49.67;;;23.42;;
26335;SDS011;14047;50.936;4.654;2022-12-13T11:24:02;52.58;;;23.52;;
26335;SDS011;14047;50.936;4.654;2022-12-13T11:26:31;52.03;;;23.40;;
26335;SDS011;14047;50.936;4.654;2022-12-13T11:34:17;43.55;;;22.50;;
26335;SDS011;14047;50.936;4.654;2022-12-13T11:42:36;44.10;;;21.88;;
26335;SDS011;14047;50.936;4.654;2022-12-13T11:45:23;48.75;;;23.73;;
26335;SDS011;14047;50.936;4.654;2022-12-13T11:51:08;43.70;;;22.02;;
26335;SDS011;14047;50.936;4.654;2022-12-13T11:56:12;52.00;;;22.02;;
26335;SDS011;14047;50.936;4.654;2022-12-13T11:58:59;47.00;;;20.60;;
26335;SDS011;14047;50.936;4.654;2022-12-13T12:04:47;52.45;;;21.98;;
26335;SDS011;14047;50.936;4.654;2022-12-13T12:07:16;43.45;;;20.63;;
26335;SDS011;14047;50.936;4.654;2022-12-13T12:09:48;59.20;;;23.90;;
26335;SDS011;14047;50.936;4.654;2022-12-13T12:12:24;43.08;;;20.95;;
26335;SDS011;14047;50.936;4.654;2022-12-13T12:17:52;50.28;;;20.65;;
26335;SDS011;14047;50.936;4.654;2022-12-13T12:20:20;45.13;;;19.70;;
26335;SDS011;14047;50.936;4.654;2022-12-13T12:26:13;56.42;;;20.30;;
26335;SDS011;14047;50.936;4.654;2022-12-13T12:28:50;45.58;;;19.88;;
26335;SDS011;14047;50.936;4.654;2022-12-13T12:31:30;50.00;;;19.20;;
26335;SDS011;14047;50.936;4.654;2022-12-13T12:47:59;42.78;;;19.17;;
26335;SDS011;14047;50.936;4.654;2022-12-13T12:50:41;35.65;;;18.65;;
26335;SDS011;14047;50.936;4.654;2022-12-13T12:53:30;61.97;;;20.75;;
26335;SDS011;14047;50.936;4.654;2022-12-13T12:59:11;46.55;;;19.27;;
26335;SDS011;14047;50.936;4.654;2022-12-13T13:04:58;39.95;;;18.30;;
26335;SDS011;14047;50.936;4.654;2022-12-13T13:07:35;40.65;;;18.20;;
26335;SDS011;14047;50.936;4.654;2022-12-13T13:10:07;64.07;;;18.67;;
26335;SDS011;14047;50.936;4.654;2022-12-13T13:12:36;50.33;;;18.83;;
26335;SDS011;14047;50.936;4.654;2022-12-13T13:17:55;47.85;;;17.75;;
26335;SDS011;14047;50.936;4.654;2022-12-13T13:20:21;46.63;;;17.63;;
26335;SDS011;14047;50.936;4.654;2022-12-13T13:22:49;57.35;;;18.45;;
26335;SDS011;14047;50.936;4.654;2022-12-13T13:25:20;40.40;;;17.15;;
26335;SDS011;14047;50.936;4.654;2022-12-13T13:27:47;33.92;;;16.80;;
26335;SDS011;14047;50.936;4.654;2022-12-13T13:30:21;38.50;;;16.02;;
26335;SDS011;14047;50.936;4.654;2022-12-13T13:32:49;40.05;;;16.27;;
26335;SDS011;14047;50.936;4.654;2022-12-13T13:35:44;37.05;;;16.73;;
26335;SDS011;14047;50.936;4.654;2022-12-13T13:40:47;37.95;;;15.82;;
26335;SDS011;14047;50.936;4.654;2022-12-13T13:43:13;36.97;;;14.82;;
26335;SDS011;14047;50.936;4.654;2022-12-13T14:08:30;41.72;;;18.02;;
26335;SDS011;14047;50.936;4.654;2022-12-13T14:14:21;49.03;;;19.98;;
26335;SDS011;14047;50.936;4.654;2022-12-13T14:22:59;43.97;;;20.10;;
26335;SDS011;14047;50.936;4.654;2022-12-13T14:31:49;48.13;;;20.70;;
26335;SDS011;14047;50.936;4.654;2022-12-13T14:34:01;48.78;;;21.17;;
26335;SDS011;14047;50.936;4.654;2022-12-13T14:36:31;61.20;;;21.60;;
26335;SDS011;14047;50.936;4.654;2022-12-13T14:41:30;47.08;;;21.35;;
26335;SDS011;14047;50.936;4.654;2022-12-13T14:44:11;43.70;;;20.10;;
26335;SDS011;14047;50.936;4.654;2022-12-13T14:46:51;49.67;;;21.50;;
26335;SDS011;14047;50.936;4.654;2022-12-13T14:49:19;46.25;;;20.50;;
26335;SDS011;14047;50.936;4.654;2022-12-13T14:51:46;44.67;;;21.45;;
26335;SDS011;14047;50.936;4.654;2022-12-13T14:54:18;50.35;;;20.33;;
26335;SDS011;14047;50.936;4.654;2022-12-13T14:56:58;41.10;;;20.02;;
26335;SDS011;14047;50.936;4.654;2022-12-13T14:59:27;46.88;;;21.17;;
26335;SDS011;14047;50.936;4.654;2022-12-13T15:01:54;48.58;;;22.15;;
26335;SDS011;14047;50.936;4.654;2022-12-13T15:04:24;54.10;;;22.02;;
26335;SDS011;14047;50.936;4.654;2022-12-13T15:06:56;47.75;;;21.15;;
26335;SDS011;14047;50.936;4.654;2022-12-13T15:09:38;51.47;;;21.95;;
26335;SDS011;14047;50.936;4.654;2022-12-13T15:12:15;83.40;;;25.33;;
26335;SDS011;14047;50.936;4.654;2022-12-13T15:14:44;51.47;;;23.45;;
26335;SDS011;14047;50.936;4.654;2022-12-13T15:17:26;52.13;;;23.20;;
26335;SDS011;14047;50.936;4.654;2022-12-13T15:19:55;52.88;;;23.48;;
26335;SDS011;14047;50.936;4.654;2022-12-13T15:22:20;59.85;;;25.23;;
26335;SDS011;14047;50.936;4.654;2022-12-13T15:24:46;60.30;;;25.80;;
26335;SDS011;14047;50.936;4.654;2022-12-13T15:27:13;80.88;;;28.33;;
26335;SDS011;14047;50.936;4.654;2022-12-13T15:29:40;75.20;;;26.92;;
26335;SDS011;14047;50.936;4.654;2022-12-13T15:32:12;61.65;;;27.83;;
26335;SDS011;14047;50.936;4.654;2022-12-13T15:34:47;59.00;;;26.02;;
26335;SDS011;14047;50.936;4.654;2022-12-13T15:39:44;61.78;;;26.77;;
26335;SDS011;14047;50.936;4.654;2022-12-13T15:42:19;59.47;;;26.25;;
26335;SDS011;14047;50.936;4.654;2022-12-13T15:44:49;55.85;;;25.10;;
26335;SDS011;14047;50.936;4.654;2022-12-13T15:47:17;57.75;;;25.70;;
26335;SDS011;14047;50.936;4.654;2022-12-13T15:54:54;59.75;;;25.65;;
26335;SDS011;14047;50.936;4.654;2022-12-13T15:57:49;56.30;;;24.13;;
26335;SDS011;14047;50.936;4.654;2022-12-13T16:02:55;56.33;;;25.23;;
26335;SDS011;14047;50.936;4.654;2022-12-13T16:07:53;56.55;;;23.08;;
26335;SDS011;14047;50.936;4.654;2022-12-13T16:10:20;58.25;;;23.55;;
26335;SDS011;14047;50.936;4.654;2022-12-13T16:12:50;50.30;;;23.73;;
26335;SDS011;14047;50.936;4.654;2022-12-13T16:15:20;48.42;;;21.63;;
26335;SDS011;14047;50.936;4.654;2022-12-13T16:17:51;47.05;;;21.98;;
26335;SDS011;14047;50.936;4.654;2022-12-13T16:20:18;51.85;;;22.58;;
26335;SDS011;14047;50.936;4.654;2022-12-13T16:22:46;48.22;;;22.33;;
26335;SDS011;14047;50.936;4.654;2022-12-13T16:25:13;51.53;;;23.08;;
26335;SDS011;14047;50.936;4.654;2022-12-13T16:27:41;52.38;;;23.13;;
26335;SDS011;14047;50.936;4.654;2022-12-13T16:30:21;46.67;;;21.15;;
26335;SDS011;14047;50.936;4.654;2022-12-13T16:32:50;55.08;;;24.25;;
26335;SDS011;14047;50.936;4.654;2022-12-13T16:35:17;51.80;;;22.13;;
26335;SDS011;14047;50.936;4.654;2022-12-13T16:37:43;49.22;;;22.38;;
26335;SDS011;14047;50.936;4.654;2022-12-13T16:40:26;44.78;;;20.85;;
26335;SDS011;14047;50.936;4.654;2022-12-13T16:42:58;49.97;;;21.42;;
26335;SDS011;14047;50.936;4.654;2022-12-13T16:45:29;50.70;;;21.88;;
26335;SDS011;14047;50.936;4.654;2022-12-13T16:47:58;53.28;;;22.55;;
26335;SDS011;14047;50.936;4.654;2022-12-13T16:50:31;45.90;;;22.38;;
26335;SDS011;14047;50.936;4.654;2022-12-13T16:53:01;51.63;;;22.48;;
26335;SDS011;14047;50.936;4.654;2022-12-13T16:55:27;49.45;;;22.60;;
26335;SDS011;14047;50.936;4.654;2022-12-13T16:57:53;46.22;;;21.30;;
26335;SDS011;14047;50.936;4.654;2022-12-13T17:00:20;48.63;;;22.00;;
26335;SDS011;14047;50.936;4.654;2022-12-13T17:02:46;43.63;;;22.05;;